sensor_id;sensor_type;location;lat;lon;timestamp;P1;durP1;ratioP1;P2;durP2;ratioP2
53835;SDS011;39737;43.334;21.936;2022-08-16T00:00:14;4.10;;;1.80;;
53835;SDS011;39737;43.334;21.936;2022-08-16T00:03:07;4.28;;;2.20;;
53835;SDS011;39737;43.334;21.936;2022-08-16T00:05:59;5.22;;;1.98;;
53835;SDS011;39737;43.334;21.936;2022-08-16T00:08:47;5.55;;;2.10;;
53835;SDS011;39737;43.334;21.936;2022-08-16T00:11:33;2.75;;;2.03;;
53835;SDS011;39737;43.334;21.936;2022-08-16T00:14:21;2.72;;;1.77;;
53835;SDS011;39737;43.334;21.936;2022-08-16T00:17:13;3.42;;;2.45;;
53835;SDS011;39737;43.334;21.936;2022-08-16T00:20:06;3.25;;;2.83;;
53835;SDS011;39737;43.334;21.936;2022-08-16T00:22:57;2.78;;;2.25;;
53835;SDS011;39737;43.334;21.936;2022-08-16T00:25:44;2.97;;;2.00;;
53835;SDS011;39737;43.334;21.936;2022-08-16T00:29:09;3.08;;;1.98;;
53835;SDS011;39737;43.334;21.936;2022-08-16T00:31:56;2.53;;;2.10;;
53835;SDS011;39737;43.334;21.936;2022-08-16T00:34:50;3.85;;;2.33;;
53835;SDS011;39737;43.334;21.936;2022-08-16T00:37:39;4.18;;;2.22;;
53835;SDS011;39737;43.334;21.936;2022-08-16T00:40:45;8.68;;;2.45;;
53835;SDS011;39737;43.334;21.936;2022-08-16T00:43:38;5.70;;;3.33;;
53835;SDS011;39737;43.334;21.936;2022-08-16T00:46:30;4.18;;;2.67;;
53835;SDS011;39737;43.334;21.936;2022-08-16T00:49:20;7.47;;;3.25;;
53835;SDS011;39737;43.334;21.936;2022-08-16T00:52:06;3.42;;;2.80;;
53835;SDS011;39737;43.334;21.936;2022-08-16T00:55:13;6.00;;;2.92;;
53835;SDS011;39737;43.334;21.936;2022-08-16T00:58:01;2.85;;;2.42;;
53835;SDS011;39737;43.334;21.936;2022-08-16T01:00:47;5.40;;;3.08;;
53835;SDS011;39737;43.334;21.936;2022-08-16T01:03:39;5.93;;;2.80;;
53835;SDS011;39737;43.334;21.936;2022-08-16T01:06:26;3.58;;;2.60;;
53835;SDS011;39737;43.334;21.936;2022-08-16T01:09:35;7.05;;;2.80;;
53835;SDS011;39737;43.334;21.936;2022-08-16T01:12:22;4.60;;;2.70;;
53835;SDS011;39737;43.334;21.936;2022-08-16T01:15:11;2.22;;;1.95;;
53835;SDS011;39737;43.334;21.936;2022-08-16T01:17:58;4.18;;;2.42;;
53835;SDS011;39737;43.334;21.936;2022-08-16T01:20:47;5.22;;;3.00;;
53835;SDS011;39737;43.334;21.936;2022-08-16T01:26:46;3.47;;;2.40;;
53835;SDS011;39737;43.334;21.936;2022-08-16T01:29:38;10.82;;;2.47;;
53835;SDS011;39737;43.334;21.936;2022-08-16T01:32:43;5.10;;;2.17;;
53835;SDS011;39737;43.334;21.936;2022-08-16T01:35:47;4.20;;;2.35;;
53835;SDS011;39737;43.334;21.936;2022-08-16T01:38:40;3.10;;;2.53;;
53835;SDS011;39737;43.334;21.936;2022-08-16T01:41:33;3.60;;;2.50;;
53835;SDS011;39737;43.334;21.936;2022-08-16T01:44:45;7.03;;;2.67;;
53835;SDS011;39737;43.334;21.936;2022-08-16T01:47:37;4.90;;;2.67;;
53835;SDS011;39737;43.334;21.936;2022-08-16T01:50:36;3.33;;;2.15;;
53835;SDS011;39737;43.334;21.936;2022-08-16T01:53:43;3.33;;;2.20;;
53835;SDS011;39737;43.334;21.936;2022-08-16T01:56:52;3.75;;;2.50;;
53835;SDS011;39737;43.334;21.936;2022-08-16T01:59:41;4.75;;;2.22;;
53835;SDS011;39737;43.334;21.936;2022-08-16T02:02:31;4.97;;;2.78;;
53835;SDS011;39737;43.334;21.936;2022-08-16T02:05:18;4.10;;;2.40;;
53835;SDS011;39737;43.334;21.936;2022-08-16T02:08:08;4.85;;;2.45;;
53835;SDS011;39737;43.334;21.936;2022-08-16T02:11:14;4.82;;;2.03;;
53835;SDS011;39737;43.334;21.936;2022-08-16T02:14:01;3.88;;;2.42;;
53835;SDS011;39737;43.334;21.936;2022-08-16T02:16:48;3.70;;;2.42;;
53835;SDS011;39737;43.334;21.936;2022-08-16T02:19:37;3.58;;;2.20;;
53835;SDS011;39737;43.334;21.936;2022-08-16T02:22:44;3.38;;;2.63;;
53835;SDS011;39737;43.334;21.936;2022-08-16T02:25:31;3.50;;;2.15;;
53835;SDS011;39737;43.334;21.936;2022-08-16T02:28:36;2.60;;;2.17;;
53835;SDS011;39737;43.334;21.936;2022-08-16T02:31:32;4.32;;;2.55;;
53835;SDS011;39737;43.334;21.936;2022-08-16T02:34:38;3.70;;;2.58;;
53835;SDS011;39737;43.334;21.936;2022-08-16T02:37:27;4.05;;;2.08;;
53835;SDS011;39737;43.334;21.936;2022-08-16T02:40:33;3.50;;;2.60;;
53835;SDS011;39737;43.334;21.936;2022-08-16T02:43:21;4.00;;;3.05;;
53835;SDS011;39737;43.334;21.936;2022-08-16T02:46:13;8.25;;;3.10;;
53835;SDS011;39737;43.334;21.936;2022-08-16T02:49:00;3.45;;;2.78;;
53835;SDS011;39737;43.334;21.936;2022-08-16T02:51:47;5.07;;;2.15;;
53835;SDS011;39737;43.334;21.936;2022-08-16T02:54:35;3.38;;;2.38;;
53835;SDS011;39737;43.334;21.936;2022-08-16T02:57:22;4.38;;;2.70;;
53835;SDS011;39737;43.334;21.936;2022-08-16T03:00:10;5.15;;;2.95;;
53835;SDS011;39737;43.334;21.936;2022-08-16T03:03:18;6.20;;;2.97;;
53835;SDS011;39737;43.334;21.936;2022-08-16T03:06:06;5.10;;;2.50;;
53835;SDS011;39737;43.334;21.936;2022-08-16T03:09:17;8.07;;;2.78;;
53835;SDS011;39737;43.334;21.936;2022-08-16T03:12:08;3.28;;;2.63;;
53835;SDS011;39737;43.334;21.936;2022-08-16T03:15:02;5.65;;;2.97;;
53835;SDS011;39737;43.334;21.936;2022-08-16T03:17:48;4.70;;;3.25;;
53835;SDS011;39737;43.334;21.936;2022-08-16T03:20:57;4.40;;;2.60;;
53835;SDS011;39737;43.334;21.936;2022-08-16T03:24:05;6.25;;;3.05;;
53835;SDS011;39737;43.334;21.936;2022-08-16T03:27:13;8.25;;;3.20;;
53835;SDS011;39737;43.334;21.936;2022-08-16T03:30:08;7.20;;;3.25;;
53835;SDS011;39737;43.334;21.936;2022-08-16T03:33:05;2.92;;;2.25;;
53835;SDS011;39737;43.334;21.936;2022-08-16T03:35:59;3.53;;;2.60;;
53835;SDS011;39737;43.334;21.936;2022-08-16T03:39:10;3.20;;;2.33;;
53835;SDS011;39737;43.334;21.936;2022-08-16T03:42:05;3.72;;;2.70;;
53835;SDS011;39737;43.334;21.936;2022-08-16T03:44:54;4.95;;;3.22;;
53835;SDS011;39737;43.334;21.936;2022-08-16T03:47:50;6.63;;;3.22;;
53835;SDS011;39737;43.334;21.936;2022-08-16T03:50:44;4.93;;;2.30;;
53835;SDS011;39737;43.334;21.936;2022-08-16T03:53:45;5.85;;;2.95;;
53835;SDS011;39737;43.334;21.936;2022-08-16T03:56:47;4.20;;;3.22;;
53835;SDS011;39737;43.334;21.936;2022-08-16T03:59:45;3.58;;;2.35;;
53835;SDS011;39737;43.334;21.936;2022-08-16T04:02:32;4.15;;;2.70;;
53835;SDS011;39737;43.334;21.936;2022-08-16T04:05:23;4.13;;;2.45;;
53835;SDS011;39737;43.334;21.936;2022-08-16T04:08:11;4.20;;;2.83;;
53835;SDS011;39737;43.334;21.936;2022-08-16T04:11:10;2.92;;;2.10;;
53835;SDS011;39737;43.334;21.936;2022-08-16T04:14:01;4.82;;;2.78;;
53835;SDS011;39737;43.334;21.936;2022-08-16T04:16:57;4.65;;;2.50;;
53835;SDS011;39737;43.334;21.936;2022-08-16T04:19:55;2.90;;;2.45;;
53835;SDS011;39737;43.334;21.936;2022-08-16T04:22:44;4.55;;;3.00;;
53835;SDS011;39737;43.334;21.936;2022-08-16T04:25:34;3.80;;;2.75;;
53835;SDS011;39737;43.334;21.936;2022-08-16T04:28:21;3.33;;;2.40;;
53835;SDS011;39737;43.334;21.936;2022-08-16T04:31:29;4.85;;;3.20;;
53835;SDS011;39737;43.334;21.936;2022-08-16T04:34:16;5.25;;;3.47;;
53835;SDS011;39737;43.334;21.936;2022-08-16T04:37:09;7.63;;;3.58;;
53835;SDS011;39737;43.334;21.936;2022-08-16T04:40:02;5.25;;;3.13;;
53835;SDS011;39737;43.334;21.936;2022-08-16T04:42:51;5.22;;;3.58;;
53835;SDS011;39737;43.334;21.936;2022-08-16T04:45:41;4.18;;;2.85;;
53835;SDS011;39737;43.334;21.936;2022-08-16T04:48:34;8.55;;;3.20;;
53835;SDS011;39737;43.334;21.936;2022-08-16T04:51:27;4.78;;;3.08;;
53835;SDS011;39737;43.334;21.936;2022-08-16T04:54:21;5.07;;;3.00;;
53835;SDS011;39737;43.334;21.936;2022-08-16T04:57:07;6.03;;;2.90;;
53835;SDS011;39737;43.334;21.936;2022-08-16T04:59:53;6.15;;;2.80;;
53835;SDS011;39737;43.334;21.936;2022-08-16T05:02:40;4.47;;;3.13;;
53835;SDS011;39737;43.334;21.936;2022-08-16T05:05:28;5.55;;;2.88;;
53835;SDS011;39737;43.334;21.936;2022-08-16T05:08:22;4.95;;;2.83;;
53835;SDS011;39737;43.334;21.936;2022-08-16T05:11:21;5.35;;;2.45;;
53835;SDS011;39737;43.334;21.936;2022-08-16T05:14:07;5.93;;;3.42;;
53835;SDS011;39737;43.334;21.936;2022-08-16T05:16:56;5.53;;;2.63;;
53835;SDS011;39737;43.334;21.936;2022-08-16T05:19:43;8.15;;;3.05;;
53835;SDS011;39737;43.334;21.936;2022-08-16T05:22:42;4.40;;;2.60;;
53835;SDS011;39737;43.334;21.936;2022-08-16T05:25:32;3.30;;;2.75;;
53835;SDS011;39737;43.334;21.936;2022-08-16T05:28:26;7.68;;;3.17;;
53835;SDS011;39737;43.334;21.936;2022-08-16T05:31:23;4.38;;;2.97;;
53835;SDS011;39737;43.334;21.936;2022-08-16T05:34:15;6.28;;;2.67;;
53835;SDS011;39737;43.334;21.936;2022-08-16T05:37:09;3.35;;;2.85;;
53835;SDS011;39737;43.334;21.936;2022-08-16T05:40:01;6.03;;;3.58;;
53835;SDS011;39737;43.334;21.936;2022-08-16T05:42:51;4.38;;;2.88;;
53835;SDS011;39737;43.334;21.936;2022-08-16T05:45:41;5.28;;;2.95;;
53835;SDS011;39737;43.334;21.936;2022-08-16T05:48:36;2.40;;;2.20;;
53835;SDS011;39737;43.334;21.936;2022-08-16T05:51:26;8.68;;;3.10;;
53835;SDS011;39737;43.334;21.936;2022-08-16T05:54:26;6.03;;;3.72;;
53835;SDS011;39737;43.334;21.936;2022-08-16T05:57:17;7.22;;;2.92;;
53835;SDS011;39737;43.334;21.936;2022-08-16T06:00:08;10.20;;;3.27;;
53835;SDS011;39737;43.334;21.936;2022-08-16T06:02:58;9.15;;;3.80;;
53835;SDS011;39737;43.334;21.936;2022-08-16T06:06:03;5.03;;;3.33;;
53835;SDS011;39737;43.334;21.936;2022-08-16T06:08:54;4.85;;;3.08;;
53835;SDS011;39737;43.334;21.936;2022-08-16T06:11:41;5.93;;;3.83;;
53835;SDS011;39737;43.334;21.936;2022-08-16T06:14:27;8.90;;;3.00;;
53835;SDS011;39737;43.334;21.936;2022-08-16T06:17:14;11.55;;;3.72;;
53835;SDS011;39737;43.334;21.936;2022-08-16T06:20:01;9.07;;;3.85;;
53835;SDS011;39737;43.334;21.936;2022-08-16T06:22:48;4.28;;;3.17;;
53835;SDS011;39737;43.334;21.936;2022-08-16T06:25:55;4.90;;;3.33;;
53835;SDS011;39737;43.334;21.936;2022-08-16T06:28:47;9.48;;;3.67;;
53835;SDS011;39737;43.334;21.936;2022-08-16T06:31:39;8.90;;;3.42;;
53835;SDS011;39737;43.334;21.936;2022-08-16T06:34:35;6.05;;;3.60;;
53835;SDS011;39737;43.334;21.936;2022-08-16T06:37:40;5.88;;;3.40;;
53835;SDS011;39737;43.334;21.936;2022-08-16T06:40:36;5.63;;;3.35;;
53835;SDS011;39737;43.334;21.936;2022-08-16T06:43:22;4.60;;;3.47;;
53835;SDS011;39737;43.334;21.936;2022-08-16T06:46:27;5.30;;;3.13;;
53835;SDS011;39737;43.334;21.936;2022-08-16T06:49:20;5.22;;;3.17;;
53835;SDS011;39737;43.334;21.936;2022-08-16T06:52:06;5.95;;;3.53;;
53835;SDS011;39737;43.334;21.936;2022-08-16T06:55:14;3.92;;;2.65;;
53835;SDS011;39737;43.334;21.936;2022-08-16T06:58:06;4.35;;;3.05;;
53835;SDS011;39737;43.334;21.936;2022-08-16T07:00:54;5.32;;;3.60;;
53835;SDS011;39737;43.334;21.936;2022-08-16T07:03:44;5.43;;;2.70;;
53835;SDS011;39737;43.334;21.936;2022-08-16T07:06:45;5.75;;;3.30;;
53835;SDS011;39737;43.334;21.936;2022-08-16T07:09:33;3.67;;;2.60;;
53835;SDS011;39737;43.334;21.936;2022-08-16T07:12:19;4.05;;;2.70;;
53835;SDS011;39737;43.334;21.936;2022-08-16T07:15:21;3.95;;;2.65;;
53835;SDS011;39737;43.334;21.936;2022-08-16T07:18:10;2.63;;;2.17;;
53835;SDS011;39737;43.334;21.936;2022-08-16T07:20:56;5.55;;;3.42;;
53835;SDS011;39737;43.334;21.936;2022-08-16T07:23:48;3.75;;;2.95;;
53835;SDS011;39737;43.334;21.936;2022-08-16T07:26:43;4.10;;;2.80;;
53835;SDS011;39737;43.334;21.936;2022-08-16T07:29:33;4.07;;;3.28;;
53835;SDS011;39737;43.334;21.936;2022-08-16T07:32:20;5.22;;;2.80;;
53835;SDS011;39737;43.334;21.936;2022-08-16T07:35:16;4.00;;;3.50;;
53835;SDS011;39737;43.334;21.936;2022-08-16T07:38:02;5.47;;;3.58;;
53835;SDS011;39737;43.334;21.936;2022-08-16T07:41:00;11.68;;;4.50;;
53835;SDS011;39737;43.334;21.936;2022-08-16T07:43:56;5.32;;;3.05;;
53835;SDS011;39737;43.334;21.936;2022-08-16T07:46:45;6.22;;;2.83;;
53835;SDS011;39737;43.334;21.936;2022-08-16T07:49:40;4.10;;;2.42;;
53835;SDS011;39737;43.334;21.936;2022-08-16T07:52:44;3.88;;;2.63;;
53835;SDS011;39737;43.334;21.936;2022-08-16T07:55:36;2.90;;;2.60;;
53835;SDS011;39737;43.334;21.936;2022-08-16T07:58:34;3.13;;;2.45;;
53835;SDS011;39737;43.334;21.936;2022-08-16T08:01:31;6.00;;;2.67;;
53835;SDS011;39737;43.334;21.936;2022-08-16T08:04:20;5.75;;;2.95;;
53835;SDS011;39737;43.334;21.936;2022-08-16T08:07:08;4.53;;;2.67;;
53835;SDS011;39737;43.334;21.936;2022-08-16T08:09:55;3.63;;;2.80;;
53835;SDS011;39737;43.334;21.936;2022-08-16T08:12:42;3.38;;;2.40;;
53835;SDS011;39737;43.334;21.936;2022-08-16T08:15:31;3.30;;;2.90;;
53835;SDS011;39737;43.334;21.936;2022-08-16T08:18:19;3.05;;;2.33;;
53835;SDS011;39737;43.334;21.936;2022-08-16T08:21:16;6.38;;;3.08;;
53835;SDS011;39737;43.334;21.936;2022-08-16T08:24:32;4.38;;;3.00;;
53835;SDS011;39737;43.334;21.936;2022-08-16T08:27:22;10.82;;;3.35;;
53835;SDS011;39737;43.334;21.936;2022-08-16T08:30:12;3.50;;;2.70;;
53835;SDS011;39737;43.334;21.936;2022-08-16T08:33:19;3.28;;;2.33;;
53835;SDS011;39737;43.334;21.936;2022-08-16T08:36:08;5.40;;;3.33;;
53835;SDS011;39737;43.334;21.936;2022-08-16T08:39:08;4.20;;;2.83;;
53835;SDS011;39737;43.334;21.936;2022-08-16T08:41:59;3.80;;;2.65;;
53835;SDS011;39737;43.334;21.936;2022-08-16T08:44:49;4.45;;;2.80;;
53835;SDS011;39737;43.334;21.936;2022-08-16T08:47:36;5.45;;;2.90;;
53835;SDS011;39737;43.334;21.936;2022-08-16T08:50:22;9.13;;;2.70;;
53835;SDS011;39737;43.334;21.936;2022-08-16T08:53:17;4.90;;;2.75;;
53835;SDS011;39737;43.334;21.936;2022-08-16T08:56:15;4.43;;;2.72;;
53835;SDS011;39737;43.334;21.936;2022-08-16T08:59:12;4.28;;;2.47;;
53835;SDS011;39737;43.334;21.936;2022-08-16T09:02:06;2.70;;;2.45;;
53835;SDS011;39737;43.334;21.936;2022-08-16T09:05:03;9.65;;;5.82;;
53835;SDS011;39737;43.334;21.936;2022-08-16T09:08:02;3.78;;;2.92;;
53835;SDS011;39737;43.334;21.936;2022-08-16T09:11:05;5.07;;;2.40;;
53835;SDS011;39737;43.334;21.936;2022-08-16T09:13:54;4.35;;;2.63;;
53835;SDS011;39737;43.334;21.936;2022-08-16T09:16:41;5.18;;;2.05;;
53835;SDS011;39737;43.334;21.936;2022-08-16T09:19:48;6.18;;;2.65;;
53835;SDS011;39737;43.334;21.936;2022-08-16T09:22:40;5.93;;;2.55;;
53835;SDS011;39737;43.334;21.936;2022-08-16T09:25:28;5.78;;;3.25;;
53835;SDS011;39737;43.334;21.936;2022-08-16T09:28:21;4.28;;;2.83;;
53835;SDS011;39737;43.334;21.936;2022-08-16T09:31:33;3.92;;;2.67;;
53835;SDS011;39737;43.334;21.936;2022-08-16T09:34:25;3.85;;;2.60;;
53835;SDS011;39737;43.334;21.936;2022-08-16T09:37:12;3.97;;;2.47;;
53835;SDS011;39737;43.334;21.936;2022-08-16T09:40:07;5.35;;;1.98;;
53835;SDS011;39737;43.334;21.936;2022-08-16T09:43:16;6.20;;;2.60;;
53835;SDS011;39737;43.334;21.936;2022-08-16T09:46:22;5.68;;;3.33;;
53835;SDS011;39737;43.334;21.936;2022-08-16T09:49:30;8.57;;;3.75;;
53835;SDS011;39737;43.334;21.936;2022-08-16T09:52:22;4.15;;;3.55;;
53835;SDS011;39737;43.334;21.936;2022-08-16T09:55:11;4.90;;;2.85;;
53835;SDS011;39737;43.334;21.936;2022-08-16T09:57:58;3.78;;;2.58;;
53835;SDS011;39737;43.334;21.936;2022-08-16T10:00:44;4.63;;;3.08;;
53835;SDS011;39737;43.334;21.936;2022-08-16T10:03:31;5.30;;;2.42;;
53835;SDS011;39737;43.334;21.936;2022-08-16T10:06:18;8.15;;;2.50;;
53835;SDS011;39737;43.334;21.936;2022-08-16T10:09:07;3.35;;;2.10;;
53835;SDS011;39737;43.334;21.936;2022-08-16T10:11:55;3.22;;;2.40;;
53835;SDS011;39737;43.334;21.936;2022-08-16T10:15:04;3.08;;;1.90;;
53835;SDS011;39737;43.334;21.936;2022-08-16T10:18:00;4.22;;;2.08;;
53835;SDS011;39737;43.334;21.936;2022-08-16T10:21:08;3.70;;;2.10;;
53835;SDS011;39737;43.334;21.936;2022-08-16T10:23:54;4.43;;;2.40;;
53835;SDS011;39737;43.334;21.936;2022-08-16T10:26:43;2.28;;;1.70;;
53835;SDS011;39737;43.334;21.936;2022-08-16T10:29:49;3.00;;;2.05;;
53835;SDS011;39737;43.334;21.936;2022-08-16T10:35:36;2.95;;;2.13;;
53835;SDS011;39737;43.334;21.936;2022-08-16T10:38:32;3.05;;;2.17;;
53835;SDS011;39737;43.334;21.936;2022-08-16T10:41:22;5.78;;;2.55;;
53835;SDS011;39737;43.334;21.936;2022-08-16T10:44:10;2.00;;;1.80;;
53835;SDS011;39737;43.334;21.936;2022-08-16T10:47:02;3.95;;;2.42;;
53835;SDS011;39737;43.334;21.936;2022-08-16T10:49:49;3.90;;;2.30;;
53835;SDS011;39737;43.334;21.936;2022-08-16T10:52:35;3.75;;;2.55;;
53835;SDS011;39737;43.334;21.936;2022-08-16T10:55:22;6.63;;;2.10;;
53835;SDS011;39737;43.334;21.936;2022-08-16T10:58:28;2.17;;;1.80;;
53835;SDS011;39737;43.334;21.936;2022-08-16T11:01:19;2.92;;;1.88;;
53835;SDS011;39737;43.334;21.936;2022-08-16T11:04:25;4.40;;;1.95;;
53835;SDS011;39737;43.334;21.936;2022-08-16T11:07:31;2.40;;;1.70;;
53835;SDS011;39737;43.334;21.936;2022-08-16T11:10:42;3.65;;;2.17;;
53835;SDS011;39737;43.334;21.936;2022-08-16T11:13:48;4.07;;;1.95;;
53835;SDS011;39737;43.334;21.936;2022-08-16T11:16:55;2.30;;;1.77;;
53835;SDS011;39737;43.334;21.936;2022-08-16T11:19:55;7.05;;;1.88;;
53835;SDS011;39737;43.334;21.936;2022-08-16T11:23:01;2.58;;;1.55;;
53835;SDS011;39737;43.334;21.936;2022-08-16T11:25:47;2.05;;;1.83;;
53835;SDS011;39737;43.334;21.936;2022-08-16T11:28:54;2.25;;;1.95;;
53835;SDS011;39737;43.334;21.936;2022-08-16T11:31:59;1.92;;;1.63;;
53835;SDS011;39737;43.334;21.936;2022-08-16T11:34:45;2.83;;;1.95;;
53835;SDS011;39737;43.334;21.936;2022-08-16T11:38:01;1.50;;;1.38;;
53835;SDS011;39737;43.334;21.936;2022-08-16T11:41:09;3.00;;;1.55;;
53835;SDS011;39737;43.334;21.936;2022-08-16T11:43:55;3.33;;;2.30;;
53835;SDS011;39737;43.334;21.936;2022-08-16T11:46:42;1.75;;;1.38;;
53835;SDS011;39737;43.334;21.936;2022-08-16T11:49:31;1.95;;;1.75;;
53835;SDS011;39737;43.334;21.936;2022-08-16T11:52:17;3.95;;;2.10;;
53835;SDS011;39737;43.334;21.936;2022-08-16T11:55:07;2.90;;;1.90;;
53835;SDS011;39737;43.334;21.936;2022-08-16T11:57:54;2.45;;;1.60;;
53835;SDS011;39737;43.334;21.936;2022-08-16T12:00:43;3.95;;;1.90;;
53835;SDS011;39737;43.334;21.936;2022-08-16T12:03:37;5.82;;;2.22;;
53835;SDS011;39737;43.334;21.936;2022-08-16T12:06:26;3.85;;;1.70;;
53835;SDS011;39737;43.334;21.936;2022-08-16T12:09:15;2.65;;;1.42;;
53835;SDS011;39737;43.334;21.936;2022-08-16T12:12:02;4.28;;;2.03;;
53835;SDS011;39737;43.334;21.936;2022-08-16T12:14:48;3.05;;;1.50;;
53835;SDS011;39737;43.334;21.936;2022-08-16T12:17:44;3.67;;;2.50;;
53835;SDS011;39737;43.334;21.936;2022-08-16T12:20:31;2.50;;;1.63;;
53835;SDS011;39737;43.334;21.936;2022-08-16T12:26:07;2.38;;;1.88;;
53835;SDS011;39737;43.334;21.936;2022-08-16T12:28:55;3.83;;;2.22;;
53835;SDS011;39737;43.334;21.936;2022-08-16T12:31:41;2.67;;;1.67;;
53835;SDS011;39737;43.334;21.936;2022-08-16T12:34:47;2.08;;;1.65;;
53835;SDS011;39737;43.334;21.936;2022-08-16T12:37:37;5.95;;;1.98;;
53835;SDS011;39737;43.334;21.936;2022-08-16T12:40:28;1.70;;;1.58;;
53835;SDS011;39737;43.334;21.936;2022-08-16T12:43:17;3.10;;;1.80;;
53835;SDS011;39737;43.334;21.936;2022-08-16T12:46:08;3.15;;;1.35;;
53835;SDS011;39737;43.334;21.936;2022-08-16T12:48:55;3.47;;;1.90;;
53835;SDS011;39737;43.334;21.936;2022-08-16T12:51:44;2.00;;;1.33;;
53835;SDS011;39737;43.334;21.936;2022-08-16T12:54:45;3.25;;;2.00;;
53835;SDS011;39737;43.334;21.936;2022-08-16T12:57:39;2.78;;;1.45;;
53835;SDS011;39737;43.334;21.936;2022-08-16T13:00:29;4.85;;;2.08;;
53835;SDS011;39737;43.334;21.936;2022-08-16T13:03:18;6.45;;;2.10;;
53835;SDS011;39737;43.334;21.936;2022-08-16T13:06:06;2.53;;;1.90;;
53835;SDS011;39737;43.334;21.936;2022-08-16T13:08:53;3.83;;;1.92;;
53835;SDS011;39737;43.334;21.936;2022-08-16T13:11:40;1.73;;;1.60;;
53835;SDS011;39737;43.334;21.936;2022-08-16T13:14:42;2.33;;;1.60;;
53835;SDS011;39737;43.334;21.936;2022-08-16T13:17:28;1.52;;;1.35;;
53835;SDS011;39737;43.334;21.936;2022-08-16T13:20:17;3.47;;;1.90;;
53835;SDS011;39737;43.334;21.936;2022-08-16T13:23:05;2.97;;;1.60;;
53835;SDS011;39737;43.334;21.936;2022-08-16T13:25:51;3.58;;;1.48;;
53835;SDS011;39737;43.334;21.936;2022-08-16T13:28:39;3.63;;;1.35;;
53835;SDS011;39737;43.334;21.936;2022-08-16T13:31:32;2.58;;;1.55;;
53835;SDS011;39737;43.334;21.936;2022-08-16T13:34:18;3.80;;;2.03;;
53835;SDS011;39737;43.334;21.936;2022-08-16T13:37:04;4.90;;;1.70;;
53835;SDS011;39737;43.334;21.936;2022-08-16T13:39:50;2.05;;;1.70;;
53835;SDS011;39737;43.334;21.936;2022-08-16T13:42:37;2.20;;;1.83;;
53835;SDS011;39737;43.334;21.936;2022-08-16T13:45:27;4.13;;;2.45;;
53835;SDS011;39737;43.334;21.936;2022-08-16T13:48:21;5.35;;;2.30;;
53835;SDS011;39737;43.334;21.936;2022-08-16T13:51:11;3.35;;;1.95;;
53835;SDS011;39737;43.334;21.936;2022-08-16T13:54:02;13.32;;;1.55;;
53835;SDS011;39737;43.334;21.936;2022-08-16T13:56:49;10.80;;;2.25;;
53835;SDS011;39737;43.334;21.936;2022-08-16T13:59:35;5.15;;;2.35;;
53835;SDS011;39737;43.334;21.936;2022-08-16T14:02:22;3.20;;;1.90;;
53835;SDS011;39737;43.334;21.936;2022-08-16T14:05:08;2.22;;;1.90;;
53835;SDS011;39737;43.334;21.936;2022-08-16T14:07:55;4.55;;;2.30;;
53835;SDS011;39737;43.334;21.936;2022-08-16T14:10:41;5.15;;;2.25;;
53835;SDS011;39737;43.334;21.936;2022-08-16T14:13:28;15.48;;;1.83;;
53835;SDS011;39737;43.334;21.936;2022-08-16T14:16:14;3.75;;;1.85;;
53835;SDS011;39737;43.334;21.936;2022-08-16T14:19:09;3.38;;;2.53;;
53835;SDS011;39737;43.334;21.936;2022-08-16T14:21:57;4.03;;;2.00;;
53835;SDS011;39737;43.334;21.936;2022-08-16T14:25:03;2.70;;;1.80;;
53835;SDS011;39737;43.334;21.936;2022-08-16T14:27:54;3.55;;;1.52;;
53835;SDS011;39737;43.334;21.936;2022-08-16T14:30:41;6.55;;;2.10;;
53835;SDS011;39737;43.334;21.936;2022-08-16T14:33:27;2.22;;;1.70;;
53835;SDS011;39737;43.334;21.936;2022-08-16T14:36:17;2.83;;;1.80;;
53835;SDS011;39737;43.334;21.936;2022-08-16T14:39:15;2.05;;;1.63;;
53835;SDS011;39737;43.334;21.936;2022-08-16T14:42:05;2.40;;;1.98;;
53835;SDS011;39737;43.334;21.936;2022-08-16T14:44:55;2.53;;;1.80;;
53835;SDS011;39737;43.334;21.936;2022-08-16T14:47:45;1.95;;;1.75;;
53835;SDS011;39737;43.334;21.936;2022-08-16T14:50:34;1.80;;;1.48;;
53835;SDS011;39737;43.334;21.936;2022-08-16T14:53:22;2.08;;;1.55;;
53835;SDS011;39737;43.334;21.936;2022-08-16T14:56:08;1.92;;;1.27;;
53835;SDS011;39737;43.334;21.936;2022-08-16T14:59:15;2.85;;;1.83;;
53835;SDS011;39737;43.334;21.936;2022-08-16T15:02:01;1.98;;;1.27;;
53835;SDS011;39737;43.334;21.936;2022-08-16T15:04:49;8.35;;;1.50;;
53835;SDS011;39737;43.334;21.936;2022-08-16T15:07:36;3.15;;;1.50;;
53835;SDS011;39737;43.334;21.936;2022-08-16T15:10:25;2.45;;;1.92;;
53835;SDS011;39737;43.334;21.936;2022-08-16T15:13:14;4.32;;;2.80;;
53835;SDS011;39737;43.334;21.936;2022-08-16T15:16:01;6.95;;;1.77;;
53835;SDS011;39737;43.334;21.936;2022-08-16T15:18:48;2.58;;;1.48;;
53835;SDS011;39737;43.334;21.936;2022-08-16T15:21:35;4.28;;;1.27;;
53835;SDS011;39737;43.334;21.936;2022-08-16T15:24:41;9.13;;;1.67;;
53835;SDS011;39737;43.334;21.936;2022-08-16T15:27:27;4.20;;;1.58;;
53835;SDS011;39737;43.334;21.936;2022-08-16T15:30:23;6.65;;;2.00;;
53835;SDS011;39737;43.334;21.936;2022-08-16T15:33:32;5.00;;;2.58;;
53835;SDS011;39737;43.334;21.936;2022-08-16T15:36:38;5.15;;;2.22;;
53835;SDS011;39737;43.334;21.936;2022-08-16T15:39:27;2.53;;;1.80;;
53835;SDS011;39737;43.334;21.936;2022-08-16T15:42:24;3.13;;;2.35;;
53835;SDS011;39737;43.334;21.936;2022-08-16T15:45:14;1.95;;;1.67;;
53835;SDS011;39737;43.334;21.936;2022-08-16T15:48:20;3.90;;;1.88;;
53835;SDS011;39737;43.334;21.936;2022-08-16T15:51:13;3.33;;;2.10;;
53835;SDS011;39737;43.334;21.936;2022-08-16T15:53:59;5.43;;;2.08;;
53835;SDS011;39737;43.334;21.936;2022-08-16T15:57:08;2.55;;;1.60;;
53835;SDS011;39737;43.334;21.936;2022-08-16T15:59:57;3.25;;;2.00;;
53835;SDS011;39737;43.334;21.936;2022-08-16T16:03:04;2.47;;;1.80;;
53835;SDS011;39737;43.334;21.936;2022-08-16T16:05:54;3.60;;;1.80;;
53835;SDS011;39737;43.334;21.936;2022-08-16T16:09:00;2.85;;;2.13;;
53835;SDS011;39737;43.334;21.936;2022-08-16T16:11:46;2.70;;;1.90;;
53835;SDS011;39737;43.334;21.936;2022-08-16T16:14:35;2.83;;;1.88;;
53835;SDS011;39737;43.334;21.936;2022-08-16T16:17:22;2.70;;;2.10;;
53835;SDS011;39737;43.334;21.936;2022-08-16T16:20:09;3.97;;;2.53;;
53835;SDS011;39737;43.334;21.936;2022-08-16T16:23:01;2.40;;;2.00;;
53835;SDS011;39737;43.334;21.936;2022-08-16T16:25:47;3.03;;;2.13;;
53835;SDS011;39737;43.334;21.936;2022-08-16T16:28:34;2.30;;;2.00;;
53835;SDS011;39737;43.334;21.936;2022-08-16T16:31:41;4.35;;;1.90;;
53835;SDS011;39737;43.334;21.936;2022-08-16T16:35:03;2.40;;;1.70;;
53835;SDS011;39737;43.334;21.936;2022-08-16T16:37:50;5.10;;;2.20;;
53835;SDS011;39737;43.334;21.936;2022-08-16T16:40:37;5.28;;;2.42;;
53835;SDS011;39737;43.334;21.936;2022-08-16T16:43:31;8.23;;;2.20;;
53835;SDS011;39737;43.334;21.936;2022-08-16T16:46:21;2.80;;;1.70;;
53835;SDS011;39737;43.334;21.936;2022-08-16T16:49:26;2.03;;;1.52;;
53835;SDS011;39737;43.334;21.936;2022-08-16T16:52:13;2.05;;;1.50;;
53835;SDS011;39737;43.334;21.936;2022-08-16T16:55:21;6.07;;;2.17;;
53835;SDS011;39737;43.334;21.936;2022-08-16T16:58:09;3.25;;;1.88;;
53835;SDS011;39737;43.334;21.936;2022-08-16T17:01:22;2.13;;;1.90;;
53835;SDS011;39737;43.334;21.936;2022-08-16T17:04:28;2.10;;;1.67;;
53835;SDS011;39737;43.334;21.936;2022-08-16T17:07:17;4.35;;;2.40;;
53835;SDS011;39737;43.334;21.936;2022-08-16T17:10:08;3.78;;;1.95;;
53835;SDS011;39737;43.334;21.936;2022-08-16T17:12:55;3.30;;;2.20;;
53835;SDS011;39737;43.334;21.936;2022-08-16T17:16:00;2.42;;;1.63;;